Time,TemperatureF,DewpointF,PressureIn,WindDirection,WindDirectionDegrees,WindSpeedMPH,WindSpeedGustMPH,Humidity,HourlyPrecipIn,Conditions,Clouds,dailyrainin,SoftwareType,DateUTC
2013-06-17 00:03:00,61.5,50.5,29.97,SW,222,0.0,0.0,67,0.00,,,0.00,WeatherDisplay:10.37,2013-06-17 05:03:00,
2013-06-17 00:09:00,61.2,50.1,29.97,SW,222,0.0,0.0,67,0.00,,,0.00,WeatherDisplay:10.37,2013-06-17 05:09:00,
2013-06-17 00:14:00,61.0,49.9,29.97,SW,222,0.0,0.0,67,0.00,,,0.00,WeatherDisplay:10.37,2013-06-17 05:14:00,
2013-06-17 00:19:00,60.8,49.8,29.97,SW,222,0.0,0.0,67,0.00,,,0.00,WeatherDisplay:10.37,2013-06-17 05:19:00,
2013-06-17 00:25:00,60.4,49.8,29.97,SW,222,0.0,0.0,68,0.00,,,0.00,WeatherDisplay:10.37,2013-06-17 05:25:00,
2013-06-17 00:30:00,60.3,49.7,29.97,SW,222,0.0,0.0,68,0.00,,,0.00,WeatherDisplay:10.37,2013-06-17 05:30:00,
2013-06-17 00:35:00,60.1,49.9,29.97,SW,222,0.0,0.0,69,0.00,,,0.00,WeatherDisplay:10.37,2013-06-17 05:35:00,
2013-06-17 00:40:00,59.7,49.9,29.97,SW,222,0.0,0.0,70,0.00,,,0.00,WeatherDisplay:10.37,2013-06-17 05:40:00,
2013-06-17 00:45:00,59.5,49.7,29.97,SW,222,0.0,0.0,70,0.00,,,0.00,WeatherDisplay:10.37,2013-06-17 05:45:00,
2013-06-17 00:50:00,59.4,50.0,29.97,SW,222,0.0,0.0,71,0.00,,,0.00,WeatherDisplay:10.37,2013-06-17 05:50:00,
2013-06-17 00:55:00,59.2,50.2,29.97,SW,222,0.0,0.0,72,0.00,,,0.00,WeatherDisplay:10.37,2013-06-17 05:55:00,
2013-06-17 01:01:00,59.0,50.0,29.97,SW,222,0.0,0.0,72,0.00,,,0.00,WeatherDisplay:10.37,2013-06-17 06:01:00,
2013-06-17 01:06:00,58.8,50.2,29.97,SW,222,0.0,0.0,73,0.00,,,0.00,WeatherDisplay:10.37,2013-06-17 06:06:00,
2013-06-17 01:11:00,58.6,50.4,29.97,East,98,0.0,0.0,74,0.00,,,0.00,WeatherDisplay:10.37,2013-06-17 06:11:00,
2013-06-17 01:16:00,58.8,51.6,29.97,East,84,5.8,5.8,77,0.00,,,0.00,WeatherDisplay:10.37,2013-06-17 06:16:00,
2013-06-17 01:21:00,59.2,51.3,29.97,ENE,75,3.5,3.5,75,0.00,,,0.00,WeatherDisplay:10.37,2013-06-17 06:21:00,
2013-06-17 01:26:00,59.4,51.1,29.97,ENE,64,2.3,0.0,74,0.00,,,0.00,WeatherDisplay:10.37,2013-06-17 06:26:00,
2013-06-17 01:32:00,59.4,50.7,29.97,ENE,78,0.0,0.0,73,0.00,,,0.00,WeatherDisplay:10.37,2013-06-17 06:32:00,
2013-06-17 01:37:00,59.4,50.7,29.97,ENE,78,0.0,0.0,73,0.00,,,0.00,WeatherDisplay:10.37,2013-06-17 06:37:00,
2013-06-17 01:42:00,59.2,50.5,29.97,ENE,78,0.0,0.0,73,0.00,,,0.00,WeatherDisplay:10.37,2013-06-17 06:42:00,
2013-06-17 01:47:00,58.8,50.5,30.00,ENE,78,0.0,0.0,74,0.00,,,0.00,WeatherDisplay:10.37,2013-06-17 06:47:00,
2013-06-17 01:53:00,58.5,50.6,30.00,ENE,78,0.0,0.0,75,0.00,,,0.00,WeatherDisplay:10.37,2013-06-17 06:53:00,
2013-06-17 01:58:00,58.3,50.4,30.00,ENE,78,0.0,0.0,75,0.00,,,0.00,WeatherDisplay:10.37,2013-06-17 06:58:00,
2013-06-17 02:03:00,58.1,50.2,30.00,ENE,78,0.0,0.0,75,0.00,,,0.00,WeatherDisplay:10.37,2013-06-17 07:03:00,
2013-06-17 02:09:00,57.7,49.9,30.00,ENE,78,0.0,0.0,75,0.00,,,0.00,WeatherDisplay:10.37,2013-06-17 07:09:00,
2013-06-17 02:14:00,57.6,49.7,30.00,ENE,78,0.0,0.0,75,0.00,,,0.00,WeatherDisplay:10.37,2013-06-17 07:14:00,
2013-06-17 02:19:00,57.4,49.5,29.97,ENE,78,0.0,0.0,75,0.00,,,0.00,WeatherDisplay:10.37,2013-06-17 07:19:00,
2013-06-17 02:24:00,57.2,49.7,29.97,ENE,78,0.0,0.0,76,0.00,,,0.00,WeatherDisplay:10.37,2013-06-17 07:24:00,
2013-06-17 02:29:00,57.0,49.9,29.97,NNE,13,3.5,0.0,77,0.00,,,0.00,WeatherDisplay:10.37,2013-06-17 07:29:00,
2013-06-17 02:34:00,56.8,50.1,29.97,NNE,13,0.0,0.0,78,0.00,,,0.00,WeatherDisplay:10.37,2013-06-17 07:34:00,
2013-06-17 02:40:00,56.8,50.1,29.97,ENE,59,0.0,0.0,78,0.00,,,0.00,WeatherDisplay:10.37,2013-06-17 07:40:00,
2013-06-17 02:45:00,56.8,50.4,29.97,ENE,59,0.0,0.0,79,0.00,,,0.00,WeatherDisplay:10.37,2013-06-17 07:45:00,
2013-06-17 02:50:00,56.8,50.4,29.97,ENE,59,0.0,0.0,79,0.00,,,0.00,WeatherDisplay:10.37,2013-06-17 07:50:00,
2013-06-17 02:55:00,56.7,50.6,29.97,SW,216,0.0,0.0,80,0.00,,,0.00,WeatherDisplay:10.37,2013-06-17 07:55:00,
2013-06-17 03:00:00,56.5,50.4,29.97,SW,216,0.0,0.0,80,0.00,,,0.00,WeatherDisplay:10.37,2013-06-17 08:00:00,
2013-06-17 03:05:00,56.3,50.2,29.97,SW,216,0.0,0.0,80,0.00,,,0.00,WeatherDisplay:10.37,2013-06-17 08:05:00,
2013-06-17 03:10:00,56.3,50.2,29.97,SW,216,0.0,0.0,80,0.00,,,0.00,WeatherDisplay:10.37,2013-06-17 08:10:00,
2013-06-17 03:16:00,56.1,50.0,29.97,SW,216,0.0,0.0,80,0.00,,,0.00,WeatherDisplay:10.37,2013-06-17 08:16:00,
2013-06-17 03:21:00,55.9,49.9,29.97,SW,216,0.0,0.0,80,0.00,,,0.00,WeatherDisplay:10.37,2013-06-17 08:21:00,
2013-06-17 03:26:00,55.9,50.2,29.97,SW,216,0.0,0.0,81,0.00,,,0.00,WeatherDisplay:10.37,2013-06-17 08:26:00,
2013-06-17 03:31:00,55.8,50.0,29.97,SW,216,0.0,0.0,81,0.00,,,0.00,WeatherDisplay:10.37,2013-06-17 08:31:00,
2013-06-17 03:36:00,55.8,50.3,29.97,SW,216,0.0,0.0,82,0.00,,,0.00,WeatherDisplay:10.37,2013-06-17 08:36:00,
2013-06-17 03:42:00,55.8,50.3,29.97,SW,216,0.0,0.0,82,0.00,,,0.00,WeatherDisplay:10.37,2013-06-17 08:42:00,
2013-06-17 03:47:00,55.8,50.3,29.97,SW,216,0.0,0.0,82,0.00,,,0.00,WeatherDisplay:10.37,2013-06-17 08:47:00,
2013-06-17 03:52:00,55.6,50.2,29.97,SW,216,0.0,0.0,82,0.00,,,0.00,WeatherDisplay:10.37,2013-06-17 08:52:00,
2013-06-17 03:57:00,55.6,50.5,29.97,SW,216,0.0,0.0,83,0.00,,,0.00,WeatherDisplay:10.37,2013-06-17 08:57:00,
2013-06-17 04:02:00,55.8,50.7,29.97,SW,216,0.0,0.0,83,0.00,,,0.00,WeatherDisplay:10.37,2013-06-17 09:02:00,
2013-06-17 04:08:00,55.6,50.5,29.97,SW,216,0.0,0.0,83,0.00,,,0.00,WeatherDisplay:10.37,2013-06-17 09:08:00,
2013-06-17 04:13:00,55.8,51.0,29.97,SW,216,0.0,0.0,84,0.00,,,0.00,WeatherDisplay:10.37,2013-06-17 09:13:00,
2013-06-17 04:18:00,55.6,50.8,29.97,SW,216,0.0,0.0,84,0.00,,,0.00,WeatherDisplay:10.37,2013-06-17 09:18:00,
2013-06-17 04:23:00,55.6,50.8,29.97,SW,216,0.0,0.0,84,0.00,,,0.00,WeatherDisplay:10.37,2013-06-17 09:23:00,
2013-06-17 04:28:00,55.6,51.1,29.97,SW,216,0.0,0.0,85,0.00,,,0.00,WeatherDisplay:10.37,2013-06-17 09:28:00,
2013-06-17 04:34:00,55.4,51.0,29.97,SW,216,0.0,0.0,85,0.00,,,0.00,WeatherDisplay:10.37,2013-06-17 09:34:00,
2013-06-17 04:39:00,55.4,51.0,29.97,SW,216,0.0,0.0,85,0.00,,,0.00,WeatherDisplay:10.37,2013-06-17 09:39:00,
2013-06-17 04:44:00,55.4,51.0,29.97,SW,216,0.0,0.0,85,0.00,,,0.00,WeatherDisplay:10.37,2013-06-17 09:44:00,
2013-06-17 04:49:00,55.2,51.1,29.97,SW,216,0.0,0.0,86,0.00,,,0.00,WeatherDisplay:10.37,2013-06-17 09:49:00,
2013-06-17 04:54:00,55.0,50.9,29.97,SW,216,0.0,0.0,86,0.00,,,0.00,WeatherDisplay:10.37,2013-06-17 09:54:00,
2013-06-17 05:00:00,55.0,50.9,29.97,SW,216,0.0,0.0,86,0.00,,,0.00,WeatherDisplay:10.37,2013-06-17 10:00:00,
2013-06-17 05:05:00,54.7,50.6,29.97,SW,216,0.0,0.0,86,0.00,,,0.00,WeatherDisplay:10.37,2013-06-17 10:05:00,
2013-06-17 05:10:00,54.7,50.6,29.97,SW,216,0.0,0.0,86,0.00,,,0.00,WeatherDisplay:10.37,2013-06-17 10:10:00,
2013-06-17 05:15:00,54.5,50.4,29.97,SW,216,0.0,0.0,86,0.00,,,0.00,WeatherDisplay:10.37,2013-06-17 10:15:00,
2013-06-17 05:20:00,54.3,50.2,30.00,SW,216,0.0,0.0,86,0.00,,,0.00,WeatherDisplay:10.37,2013-06-17 10:20:00,
2013-06-17 05:25:00,54.3,50.5,30.00,SW,216,0.0,0.0,87,0.00,,,0.00,WeatherDisplay:10.37,2013-06-17 10:25:00,
2013-06-17 05:30:00,54.3,50.5,30.00,SW,216,0.0,0.0,87,0.00,,,0.00,WeatherDisplay:10.37,2013-06-17 10:30:00,
2013-06-17 05:36:00,54.3,50.5,29.97,SW,216,0.0,0.0,87,0.00,,,0.00,WeatherDisplay:10.37,2013-06-17 10:36:00,
2013-06-17 05:41:00,54.1,50.7,29.97,SW,216,0.0,0.0,88,0.00,,,0.00,WeatherDisplay:10.37,2013-06-17 10:41:00,
2013-06-17 05:46:00,54.3,50.8,29.97,SW,216,0.0,0.0,88,0.00,,,0.00,WeatherDisplay:10.37,2013-06-17 10:46:00,
2013-06-17 05:51:00,54.3,51.1,29.97,SW,216,0.0,0.0,89,0.00,,,0.00,WeatherDisplay:10.37,2013-06-17 10:51:00,
2013-06-17 05:56:00,54.3,51.1,29.97,SW,216,0.0,0.0,89,0.00,,,0.00,WeatherDisplay:10.37,2013-06-17 10:56:00,
2013-06-17 06:01:00,54.3,51.1,29.97,SW,216,0.0,0.0,89,0.00,,,0.00,WeatherDisplay:10.37,2013-06-17 11:01:00,
2013-06-17 06:07:00,54.3,51.1,29.97,SW,216,0.0,0.0,89,0.00,,,0.00,WeatherDisplay:10.37,2013-06-17 11:07:00,
2013-06-17 06:12:00,54.5,51.3,29.97,SW,216,0.0,0.0,89,0.00,,,0.00,WeatherDisplay:10.37,2013-06-17 11:12:00,
2013-06-17 06:17:00,54.5,51.3,30.00,SW,216,0.0,0.0,89,0.00,,,0.00,WeatherDisplay:10.37,2013-06-17 11:17:00,
2013-06-17 06:22:00,54.9,52.0,30.00,SW,216,0.0,0.0,90,0.00,,,0.00,WeatherDisplay:10.37,2013-06-17 11:22:00,
2013-06-17 06:27:00,55.8,52.9,30.00,SW,216,0.0,0.0,90,0.00,,,0.00,WeatherDisplay:10.37,2013-06-17 11:27:00,
2013-06-17 06:33:00,56.5,53.6,29.97,SW,216,0.0,0.0,90,0.00,,,0.00,WeatherDisplay:10.37,2013-06-17 11:33:00,
2013-06-17 06:38:00,57.6,54.0,29.97,SW,216,0.0,0.0,88,0.00,,,0.00,WeatherDisplay:10.37,2013-06-17 11:38:00,
2013-06-17 06:43:00,58.1,53.9,29.97,SW,216,0.0,0.0,86,0.00,,,0.00,WeatherDisplay:10.37,2013-06-17 11:43:00,
2013-06-17 06:49:00,59.0,53.8,29.97,SW,216,0.0,0.0,83,0.00,,,0.00,WeatherDisplay:10.37,2013-06-17 11:49:00,
2013-06-17 06:54:00,59.5,53.4,29.97,SW,216,0.0,0.0,80,0.00,,,0.00,WeatherDisplay:10.37,2013-06-17 11:54:00,
2013-06-17 06:59:00,59.5,53.0,29.97,SW,216,0.0,0.0,79,0.00,,,0.00,WeatherDisplay:10.37,2013-06-17 11:59:00,
2013-06-17 07:05:00,59.5,53.0,29.97,SW,216,0.0,0.0,79,0.00,,,0.00,WeatherDisplay:10.37,2013-06-17 12:05:00,
2013-06-17 07:10:00,59.7,53.2,29.97,SW,216,0.0,0.0,79,0.00,,,0.00,WeatherDisplay:10.37,2013-06-17 12:10:00,
2013-06-17 07:15:00,59.7,53.2,29.97,SW,216,0.0,0.0,79,0.00,,,0.00,WeatherDisplay:10.37,2013-06-17 12:15:00,
2013-06-17 07:20:00,59.9,53.4,29.97,SW,216,0.0,0.0,79,0.00,,,0.00,WeatherDisplay:10.37,2013-06-17 12:20:00,
2013-06-17 07:25:00,60.3,53.7,29.97,SW,216,0.0,0.0,79,0.00,,,0.00,WeatherDisplay:10.37,2013-06-17 12:25:00,
2013-06-17 07:31:00,60.8,53.9,29.97,SW,232,0.0,0.0,78,0.00,,,0.00,WeatherDisplay:10.37,2013-06-17 12:31:00,
2013-06-17 07:36:00,61.3,53.7,30.00,SW,214,3.5,3.5,76,0.00,,,0.00,WeatherDisplay:10.37,2013-06-17 12:36:00,
2013-06-17 07:41:00,61.9,53.9,30.00,SW,222,5.8,5.8,75,0.00,,,0.00,WeatherDisplay:10.37,2013-06-17 12:41:00,
2013-06-17 07:46:00,62.4,54.0,30.00,SW,216,3.5,0.0,74,0.00,,,0.00,WeatherDisplay:10.37,2013-06-17 12:46:00,
2013-06-17 07:51:00,63.0,53.8,30.00,SW,229,7.2,7.2,72,0.00,,,0.00,WeatherDisplay:10.37,2013-06-17 12:51:00,
2013-06-17 07:57:00,63.5,53.5,30.00,SW,231,3.5,4.0,70,0.00,,,0.00,WeatherDisplay:10.37,2013-06-17 12:57:00,
2013-06-17 08:02:00,64.0,53.7,30.00,SW,217,3.5,3.5,69,0.00,,,0.00,WeatherDisplay:10.37,2013-06-17 13:02:00,
2013-06-17 08:07:00,64.6,53.8,30.00,SSW,213,4.9,4.9,68,0.00,,,0.00,WeatherDisplay:10.37,2013-06-17 13:07:00,
2013-06-17 08:12:00,64.9,54.1,30.00,SSW,211,5.8,5.8,68,0.00,,,0.00,WeatherDisplay:10.37,2013-06-17 13:12:00,
2013-06-17 08:17:00,65.5,54.2,30.00,SSW,200,5.8,5.8,67,0.00,,,0.00,WeatherDisplay:10.37,2013-06-17 13:17:00,
2013-06-17 08:22:00,65.8,54.6,30.00,WSW,248,4.9,4.9,67,0.00,,,0.00,WeatherDisplay:10.37,2013-06-17 13:22:00,
2013-06-17 08:28:00,66.4,54.7,30.00,WSW,249,2.3,0.0,66,0.00,,,0.00,WeatherDisplay:10.37,2013-06-17 13:28:00,
2013-06-17 08:33:00,66.7,54.6,30.00,SW,223,5.8,5.8,65,0.00,,,0.00,WeatherDisplay:10.37,2013-06-17 13:33:00,
2013-06-17 08:38:00,67.1,54.9,30.00,SW,226,5.8,5.8,65,0.00,,,0.00,WeatherDisplay:10.37,2013-06-17 13:38:00,
2013-06-17 08:43:00,67.6,55.5,30.00,WNW,299,5.8,5.8,65,0.00,,,0.00,WeatherDisplay:10.37,2013-06-17 13:43:00,
2013-06-17 08:48:00,68.0,55.4,30.03,North,357,3.5,3.5,64,0.00,,,0.00,WeatherDisplay:10.37,2013-06-17 13:48:00,
2013-06-17 08:53:00,68.0,55.4,30.03,SW,216,3.5,3.5,64,0.00,,,0.00,WeatherDisplay:10.37,2013-06-17 13:53:00,
2013-06-17 08:59:00,68.2,55.5,30.03,WSW,249,3.5,3.5,64,0.00,,,0.00,WeatherDisplay:10.37,2013-06-17 13:59:00,
2013-06-17 09:04:00,68.5,55.9,30.03,WNW,287,2.3,0.0,64,0.00,,,0.00,WeatherDisplay:10.37,2013-06-17 14:04:00,
2013-06-17 09:09:00,68.9,56.2,30.03,NE,44,0.0,0.0,64,0.00,,,0.00,WeatherDisplay:10.37,2013-06-17 14:09:00,
2013-06-17 09:14:00,69.1,56.4,30.03,WSW,255,0.0,0.0,64,0.00,,,0.00,WeatherDisplay:10.37,2013-06-17 14:14:00,
2013-06-17 09:19:00,69.6,56.9,30.03,NW,315,2.3,0.0,64,0.00,,,0.00,WeatherDisplay:10.37,2013-06-17 14:19:00,
2013-06-17 09:24:00,70.3,57.1,30.03,SSW,206,5.8,5.8,63,0.00,,,0.00,WeatherDisplay:10.37,2013-06-17 14:24:00,
2013-06-17 09:29:00,70.7,57.5,30.03,SW,220,3.5,4.0,63,0.00,,,0.00,WeatherDisplay:10.37,2013-06-17 14:29:00,
2013-06-17 09:35:00,71.6,57.9,30.03,SSW,201,8.1,8.1,62,0.00,,,0.00,WeatherDisplay:10.37,2013-06-17 14:35:00,
2013-06-17 09:40:00,72.1,58.4,30.03,North,353,3.5,0.0,62,0.00,,,0.00,WeatherDisplay:10.37,2013-06-17 14:40:00,
2013-06-17 09:45:00,72.7,58.5,30.03,SW,216,5.8,5.8,61,0.00,,,0.00,WeatherDisplay:10.37,2013-06-17 14:45:00,
2013-06-17 09:50:00,73.2,58.0,30.03,SW,234,3.5,3.5,59,0.00,,,0.00,WeatherDisplay:10.37,2013-06-17 14:50:00,
2013-06-17 09:55:00,73.9,56.8,30.03,ENE,57,4.6,4.6,55,0.00,,,0.00,WeatherDisplay:10.37,2013-06-17 14:55:00,
2013-06-17 10:01:00,74.7,57.9,30.03,SSW,213,5.8,5.8,56,0.00,,,0.00,WeatherDisplay:10.37,2013-06-17 15:01:00,
2013-06-17 10:06:00,75.4,58.1,30.03,NW,304,2.7,0.0,55,0.00,,,0.00,WeatherDisplay:10.37,2013-06-17 15:06:00,
2013-06-17 10:11:00,75.9,58.1,30.03,SSW,213,3.5,3.5,54,0.00,,,0.00,WeatherDisplay:10.37,2013-06-17 15:11:00,
2013-06-17 10:16:00,76.6,58.2,30.03,SW,223,2.3,0.0,53,0.00,,,0.00,WeatherDisplay:10.37,2013-06-17 15:16:00,
2013-06-17 10:21:00,77.2,58.2,30.03,NNE,19,3.5,3.5,52,0.00,,,0.00,WeatherDisplay:10.37,2013-06-17 15:21:00,
2013-06-17 10:26:00,77.4,58.4,30.03,SSW,208,3.5,3.5,52,0.00,,,0.00,WeatherDisplay:10.37,2013-06-17 15:26:00,
2013-06-17 10:31:00,77.9,58.9,30.03,NNW,340,3.5,3.5,52,0.00,,,0.00,WeatherDisplay:10.37,2013-06-17 15:31:00,
2013-06-17 10:37:00,78.3,58.6,30.03,SW,236,4.6,4.6,51,0.00,,,0.00,WeatherDisplay:10.37,2013-06-17 15:37:00,
2013-06-17 10:42:00,78.4,58.8,30.03,NW,312,5.8,5.8,51,0.00,,,0.00,WeatherDisplay:10.37,2013-06-17 15:42:00,
2013-06-17 10:47:00,78.4,58.8,30.03,WNW,300,5.8,5.8,51,0.00,,,0.00,WeatherDisplay:10.37,2013-06-17 15:47:00,
2013-06-17 10:52:00,79.0,59.3,30.03,SW,231,5.8,5.8,51,0.00,,,0.00,WeatherDisplay:10.37,2013-06-17 15:52:00,
2013-06-17 10:57:00,79.0,59.3,30.03,WSW,257,3.5,0.0,51,0.00,,,0.00,WeatherDisplay:10.37,2013-06-17 15:57:00,
2013-06-17 11:02:00,79.0,59.3,30.03,WSW,255,3.5,3.5,51,0.00,,,0.00,WeatherDisplay:10.37,2013-06-17 16:02:00,
2013-06-17 11:08:00,79.5,59.2,30.03,SW,231,5.8,5.8,50,0.00,,,0.00,WeatherDisplay:10.37,2013-06-17 16:08:00,
2013-06-17 11:13:00,80.1,59.7,30.03,WNW,286,6.9,6.9,50,0.00,,,0.00,WeatherDisplay:10.37,2013-06-17 16:13:00,
2013-06-17 11:18:00,80.4,60.1,30.03,SW,220,4.0,4.0,50,0.00,,,0.00,WeatherDisplay:10.37,2013-06-17 16:18:00,
2013-06-17 11:23:00,80.4,60.1,30.03,SSW,199,3.5,4.0,50,0.00,,,0.00,WeatherDisplay:10.37,2013-06-17 16:23:00,
2013-06-17 11:28:00,79.9,59.6,30.03,West,281,5.8,5.8,50,0.00,,,0.00,WeatherDisplay:10.37,2013-06-17 16:28:00,
2013-06-17 11:33:00,80.2,59.9,30.03,NW,323,2.3,2.7,50,0.00,,,0.00,WeatherDisplay:10.37,2013-06-17 16:33:00,
2013-06-17 11:38:00,81.0,60.6,30.03,NW,318,3.5,0.0,50,0.00,,,0.00,WeatherDisplay:10.37,2013-06-17 16:38:00,
2013-06-17 11:44:00,81.0,60.6,30.03,SSW,212,5.8,5.8,50,0.00,,,0.00,WeatherDisplay:10.37,2013-06-17 16:44:00,
2013-06-17 11:49:00,81.0,60.6,30.03,ESE,106,3.5,3.5,50,0.00,,,0.00,WeatherDisplay:10.37,2013-06-17 16:49:00,
2013-06-17 11:54:00,81.0,60.6,30.03,WNW,284,3.5,0.0,50,0.00,,,0.00,WeatherDisplay:10.37,2013-06-17 16:54:00,
2013-06-17 11:59:00,81.0,60.6,30.03,NW,312,4.6,4.6,50,0.00,,,0.00,WeatherDisplay:10.37,2013-06-17 16:59:00,
2013-06-17 12:04:00,81.0,60.6,30.06,SSW,206,3.5,0.0,50,0.00,,,0.00,WeatherDisplay:10.37,2013-06-17 17:04:00,
2013-06-17 12:09:00,78.8,58.6,30.06,West,273,2.7,0.0,50,0.00,,,0.00,WeatherDisplay:10.37,2013-06-17 17:09:00,
2013-06-17 12:14:00,79.7,59.4,30.06,SSW,206,5.8,5.8,50,0.00,,,0.00,WeatherDisplay:10.37,2013-06-17 17:14:00,
2013-06-17 12:20:00,79.7,59.4,30.06,WSW,249,3.5,3.6,50,0.00,,,0.00,WeatherDisplay:10.37,2013-06-17 17:20:00,
2013-06-17 12:25:00,79.7,59.4,30.06,NW,325,0.0,0.0,50,0.00,,,0.00,WeatherDisplay:10.37,2013-06-17 17:25:00,
2013-06-17 12:30:00,78.1,57.9,30.06,NNW,342,3.6,3.6,50,0.00,,,0.00,WeatherDisplay:10.37,2013-06-17 17:30:00,
2013-06-17 12:35:00,78.1,57.9,30.06,West,264,3.5,0.0,50,0.00,,,0.00,WeatherDisplay:10.37,2013-06-17 17:35:00,
2013-06-17 12:40:00,77.9,57.8,30.06,NW,304,0.0,0.0,50,0.00,,,0.00,WeatherDisplay:10.37,2013-06-17 17:40:00,
2013-06-17 12:45:00,77.9,57.8,30.06,NNW,334,5.8,0.0,50,0.00,,,0.00,WeatherDisplay:10.37,2013-06-17 17:45:00,
2013-06-17 12:51:00,77.4,57.8,30.06,North,353,3.5,3.5,51,0.00,,,0.00,WeatherDisplay:10.37,2013-06-17 17:51:00,
2013-06-17 12:56:00,76.8,57.3,30.06,North,353,2.3,0.0,51,0.00,,,0.00,WeatherDisplay:10.37,2013-06-17 17:56:00,
2013-06-17 13:01:00,76.3,56.8,30.06,NW,311,4.6,4.6,51,0.00,,,0.00,WeatherDisplay:10.37,2013-06-17 18:01:00,
2013-06-17 13:06:00,75.4,57.1,30.06,North,6,0.0,0.0,53,0.00,,,0.00,WeatherDisplay:10.37,2013-06-17 18:06:00,
2013-06-17 13:11:00,75.4,58.1,30.06,NNW,341,3.5,3.5,55,0.00,,,0.00,WeatherDisplay:10.37,2013-06-17 18:11:00,
2013-06-17 13:16:00,75.7,57.9,30.06,NNE,15,3.5,0.0,54,0.00,,,0.00,WeatherDisplay:10.37,2013-06-17 18:16:00,
2013-06-17 13:21:00,76.6,58.2,30.06,ENE,76,6.3,0.0,53,0.00,,,0.00,WeatherDisplay:10.37,2013-06-17 18:21:00,
2013-06-17 13:27:00,77.5,59.1,30.06,WSW,247,5.8,5.8,53,0.00,,,0.00,WeatherDisplay:10.37,2013-06-17 18:27:00,
2013-06-17 13:32:00,78.4,59.4,30.06,SW,220,3.5,3.5,52,0.00,,,0.00,WeatherDisplay:10.37,2013-06-17 18:32:00,
2013-06-17 13:37:00,79.0,59.3,30.06,SW,222,8.1,8.1,51,0.00,,,0.00,WeatherDisplay:10.37,2013-06-17 18:37:00,
2013-06-17 13:42:00,79.5,59.8,30.06,SSW,207,3.5,3.5,51,0.00,,,0.00,WeatherDisplay:10.37,2013-06-17 18:42:00,
2013-06-17 13:47:00,80.1,59.7,30.03,South,172,4.9,4.9,50,0.00,,,0.00,WeatherDisplay:10.37,2013-06-17 18:47:00,
2013-06-17 13:52:00,80.2,59.9,30.03,SW,217,5.8,5.8,50,0.00,,,0.00,WeatherDisplay:10.37,2013-06-17 18:52:00,
2013-06-17 13:57:00,80.8,60.4,30.03,WSW,252,5.8,5.8,50,0.00,,,0.00,WeatherDisplay:10.37,2013-06-17 18:57:00,
2013-06-17 14:02:00,81.1,60.7,30.03,West,265,5.8,5.8,50,0.00,,,0.00,WeatherDisplay:10.37,2013-06-17 19:02:00,
2013-06-17 14:07:00,81.3,60.9,30.03,SW,225,4.6,4.6,50,0.00,,,0.00,WeatherDisplay:10.37,2013-06-17 19:07:00,
2013-06-17 14:12:00,80.1,59.7,30.03,SSW,208,3.5,3.5,50,0.00,,,0.00,WeatherDisplay:10.37,2013-06-17 19:12:00,
2013-06-17 14:18:00,79.0,58.8,30.03,WSW,250,5.8,5.8,50,0.00,,,0.00,WeatherDisplay:10.37,2013-06-17 19:18:00,
2013-06-17 14:23:00,77.9,57.8,30.03,North,0,4.0,4.0,50,0.00,,,0.00,WeatherDisplay:10.37,2013-06-17 19:23:00,
2013-06-17 14:28:00,77.5,57.4,30.03,NNW,339,0.0,0.0,50,0.00,,,0.00,WeatherDisplay:10.37,2013-06-17 19:28:00,
2013-06-17 14:33:00,77.4,57.8,30.06,NW,316,3.5,3.5,51,0.00,,,0.00,WeatherDisplay:10.37,2013-06-17 19:33:00,
2013-06-17 14:39:00,77.2,57.7,30.06,NNW,342,3.5,4.0,51,0.00,,,0.00,WeatherDisplay:10.37,2013-06-17 19:39:00,
2013-06-17 14:44:00,78.1,58.5,30.06,NW,324,3.5,3.5,51,0.00,,,0.00,WeatherDisplay:10.37,2013-06-17 19:44:00,
2013-06-17 14:49:00,78.6,59.0,30.06,North,10,3.5,0.0,51,0.00,,,0.00,WeatherDisplay:10.37,2013-06-17 19:49:00,
2013-06-17 14:54:00,79.0,58.8,30.06,North,0,3.5,0.0,50,0.00,,,0.00,WeatherDisplay:10.37,2013-06-17 19:54:00,
2013-06-17 14:59:00,78.3,58.1,30.06,North,353,3.5,4.5,50,0.00,,,0.00,WeatherDisplay:10.37,2013-06-17 19:59:00,
2013-06-17 15:04:00,76.8,57.3,30.06,SE,142,4.6,4.6,51,0.00,,,0.00,WeatherDisplay:10.37,2013-06-17 20:04:00,
2013-06-17 15:09:00,76.5,57.0,30.06,North,357,5.8,5.8,51,0.00,,,0.00,WeatherDisplay:10.37,2013-06-17 20:09:00,
2013-06-17 15:15:00,76.6,57.2,30.06,North,349,3.5,3.5,51,0.00,,,0.00,WeatherDisplay:10.37,2013-06-17 20:15:00,
2013-06-17 15:20:00,76.6,57.2,30.06,NNW,331,5.8,5.8,51,0.00,,,0.00,WeatherDisplay:10.37,2013-06-17 20:20:00,
2013-06-17 15:25:00,76.6,57.2,30.06,NNE,12,5.8,5.8,51,0.00,,,0.00,WeatherDisplay:10.37,2013-06-17 20:25:00,
2013-06-17 15:30:00,76.6,57.2,30.06,NNW,333,8.1,8.1,51,0.00,,,0.00,WeatherDisplay:10.37,2013-06-17 20:30:00,
2013-06-17 15:35:00,76.6,57.2,30.06,NW,304,5.8,5.8,51,0.00,,,0.00,WeatherDisplay:10.37,2013-06-17 20:35:00,
2013-06-17 15:40:00,76.8,57.3,30.06,ESE,113,5.8,5.8,51,0.00,,,0.00,WeatherDisplay:10.37,2013-06-17 20:40:00,
2013-06-17 15:46:00,77.0,57.5,30.06,NW,322,3.5,3.6,51,0.00,,,0.00,WeatherDisplay:10.37,2013-06-17 20:46:00,
2013-06-17 15:51:00,77.0,57.5,30.06,WNW,300,4.6,4.6,51,0.00,,,0.00,WeatherDisplay:10.37,2013-06-17 20:51:00,
2013-06-17 15:56:00,77.4,57.8,30.06,NNW,343,3.5,3.5,51,0.00,,,0.00,WeatherDisplay:10.37,2013-06-17 20:56:00,
2013-06-17 16:01:00,77.4,57.8,30.06,NE,47,3.5,3.6,51,0.00,,,0.00,WeatherDisplay:10.37,2013-06-17 21:01:00,
2013-06-17 16:06:00,77.4,57.8,30.06,NNE,23,3.5,3.5,51,0.00,,,0.00,WeatherDisplay:10.37,2013-06-17 21:06:00,
2013-06-17 16:11:00,78.1,58.5,30.06,North,357,3.5,3.5,51,0.00,,,0.00,WeatherDisplay:10.37,2013-06-17 21:11:00,
2013-06-17 16:17:00,77.9,58.3,30.06,North,350,4.6,4.6,51,0.00,,,0.00,WeatherDisplay:10.37,2013-06-17 21:17:00,
2013-06-17 16:22:00,78.1,58.5,30.06,NW,304,3.5,0.0,51,0.00,,,0.00,WeatherDisplay:10.37,2013-06-17 21:22:00,
2013-06-17 16:27:00,78.1,58.5,30.06,WNW,288,3.5,0.0,51,0.00,,,0.00,WeatherDisplay:10.37,2013-06-17 21:27:00,
2013-06-17 16:32:00,77.9,58.3,30.06,NW,317,4.6,4.6,51,0.00,,,0.00,WeatherDisplay:10.37,2013-06-17 21:32:00,
2013-06-17 16:37:00,77.5,57.4,30.06,NW,324,5.8,5.8,50,0.00,,,0.00,WeatherDisplay:10.37,2013-06-17 21:37:00,
2013-06-17 16:43:00,77.2,57.7,30.06,NNW,333,5.8,5.8,51,0.00,,,0.00,WeatherDisplay:10.37,2013-06-17 21:43:00,
2013-06-17 16:48:00,77.4,57.8,30.06,WNW,283,3.6,3.6,51,0.00,,,0.00,WeatherDisplay:10.37,2013-06-17 21:48:00,
2013-06-17 16:53:00,77.2,57.7,30.06,WNW,300,3.5,3.5,51,0.00,,,0.00,WeatherDisplay:10.37,2013-06-17 21:53:00,
2013-06-17 16:58:00,77.0,57.5,30.06,SSE,162,3.6,3.6,51,0.00,,,0.00,WeatherDisplay:10.37,2013-06-17 21:58:00,
2013-06-17 17:03:00,77.0,57.5,30.06,NNW,342,3.5,3.5,51,0.00,,,0.00,WeatherDisplay:10.37,2013-06-17 22:03:00,
2013-06-17 17:08:00,77.0,57.5,30.06,NW,324,4.6,4.6,51,0.00,,,0.00,WeatherDisplay:10.37,2013-06-17 22:08:00,
2013-06-17 17:14:00,76.8,57.3,30.06,North,353,3.5,3.6,51,0.00,,,0.00,WeatherDisplay:10.37,2013-06-17 22:14:00,
2013-06-17 17:19:00,76.6,57.2,30.06,North,353,5.8,5.8,51,0.00,,,0.00,WeatherDisplay:10.37,2013-06-17 22:19:00,
2013-06-17 17:24:00,76.6,57.2,30.06,NNW,342,4.6,4.6,51,0.00,,,0.00,WeatherDisplay:10.37,2013-06-17 22:24:00,
2013-06-17 17:29:00,76.8,57.3,30.06,NNW,329,3.5,3.5,51,0.00,,,0.00,WeatherDisplay:10.37,2013-06-17 22:29:00,
2013-06-17 17:35:00,76.8,57.3,30.06,NNW,337,5.8,5.8,51,0.00,,,0.00,WeatherDisplay:10.37,2013-06-17 22:35:00,
2013-06-17 17:40:00,76.6,57.2,30.06,West,271,4.6,4.6,51,0.00,,,0.00,WeatherDisplay:10.37,2013-06-17 22:40:00,
2013-06-17 17:45:00,76.6,57.2,30.06,NE,37,3.5,3.5,51,0.00,,,0.00,WeatherDisplay:10.37,2013-06-17 22:45:00,
2013-06-17 17:50:00,76.6,57.2,30.06,East,81,4.6,4.6,51,0.00,,,0.00,WeatherDisplay:10.37,2013-06-17 22:50:00,
2013-06-17 17:55:00,76.5,57.0,30.06,East,86,3.5,3.5,51,0.00,,,0.00,WeatherDisplay:10.37,2013-06-17 22:55:00,
2013-06-17 18:00:00,76.5,57.0,30.06,NW,326,4.6,4.6,51,0.00,,,0.00,WeatherDisplay:10.37,2013-06-17 23:00:00,
2013-06-17 18:06:00,76.5,57.0,30.06,NNW,327,3.5,3.5,51,0.00,,,0.00,WeatherDisplay:10.37,2013-06-17 23:06:00,
2013-06-17 18:11:00,76.5,57.0,30.06,NW,322,5.8,5.8,51,0.00,,,0.00,WeatherDisplay:10.37,2013-06-17 23:11:00,
2013-06-17 18:16:00,76.6,57.2,30.06,North,0,4.6,4.6,51,0.00,,,0.00,WeatherDisplay:10.37,2013-06-17 23:16:00,
2013-06-17 18:21:00,76.5,57.0,30.06,NNE,15,3.5,3.5,51,0.00,,,0.00,WeatherDisplay:10.37,2013-06-17 23:21:00,
2013-06-17 18:26:00,76.1,56.7,30.06,North,7,3.5,3.5,51,0.00,,,0.00,WeatherDisplay:10.37,2013-06-17 23:26:00,
2013-06-17 18:32:00,75.9,56.5,30.06,NNW,327,3.5,3.5,51,0.00,,,0.00,WeatherDisplay:10.37,2013-06-17 23:32:00,
2013-06-17 18:37:00,75.6,56.2,30.03,NNW,344,3.5,3.5,51,0.00,,,0.00,WeatherDisplay:10.37,2013-06-17 23:37:00,
2013-06-17 18:42:00,75.4,56.0,30.03,NW,312,3.5,0.0,51,0.00,,,0.00,WeatherDisplay:10.37,2013-06-17 23:42:00,
2013-06-17 18:47:00,75.2,55.8,30.06,NW,322,3.5,0.0,51,0.00,,,0.00,WeatherDisplay:10.37,2013-06-17 23:47:00,
2013-06-17 18:53:00,75.0,55.7,30.06,NW,325,3.5,0.0,51,0.00,,,0.00,WeatherDisplay:10.37,2013-06-17 23:53:00,
2013-06-17 18:58:00,74.8,55.5,30.06,North,0,2.3,0.0,51,0.00,,,0.00,WeatherDisplay:10.37,2013-06-17 23:58:00,
2013-06-17 19:03:00,74.5,55.2,30.06,NNE,23,2.3,2.3,51,0.00,,,0.00,WeatherDisplay:10.37,2013-06-18 00:03:00,
2013-06-17 19:08:00,74.1,54.8,30.06,NNE,27,3.5,0.0,51,0.00,,,0.00,WeatherDisplay:10.37,2013-06-18 00:08:00,
2013-06-17 19:13:00,73.9,54.7,30.06,NNE,15,3.5,3.5,51,0.00,,,0.00,WeatherDisplay:10.37,2013-06-18 00:13:00,
2013-06-17 19:18:00,73.8,55.0,30.06,North,353,5.8,5.8,52,0.00,,,0.00,WeatherDisplay:10.37,2013-06-18 00:18:00,
2013-06-17 19:23:00,73.4,55.2,30.06,East,79,5.8,5.8,53,0.00,,,0.00,WeatherDisplay:10.37,2013-06-18 00:23:00,
2013-06-17 19:29:00,73.6,55.4,30.06,ENE,75,5.8,5.8,53,0.00,,,0.00,WeatherDisplay:10.37,2013-06-18 00:29:00,
2013-06-17 19:34:00,73.4,55.2,30.06,East,92,3.5,3.6,53,0.00,,,0.00,WeatherDisplay:10.37,2013-06-18 00:34:00,
2013-06-17 19:39:00,73.4,55.2,30.06,NE,42,3.5,3.5,53,0.00,,,0.00,WeatherDisplay:10.37,2013-06-18 00:39:00,
2013-06-17 19:45:00,73.4,55.2,30.06,East,80,3.5,0.0,53,0.00,,,0.00,WeatherDisplay:10.37,2013-06-18 00:45:00,
2013-06-17 19:50:00,72.5,55.4,30.06,NNE,13,3.5,3.5,55,0.00,,,0.00,WeatherDisplay:10.37,2013-06-18 00:50:00,
2013-06-17 19:55:00,72.1,55.1,30.06,NNW,333,3.5,3.5,55,0.00,,,0.00,WeatherDisplay:10.37,2013-06-18 00:55:00,
2013-06-17 20:00:00,72.0,54.9,30.06,ENE,57,5.8,5.8,55,0.00,,,0.00,WeatherDisplay:10.37,2013-06-18 01:00:00,
2013-06-17 20:05:00,71.8,54.7,30.06,ENE,76,3.6,3.6,55,0.00,,,0.00,WeatherDisplay:10.37,2013-06-18 01:05:00,
2013-06-17 20:10:00,71.6,54.6,30.06,ENE,73,11.5,11.5,55,0.00,,,0.00,WeatherDisplay:10.37,2013-06-18 01:10:00,
2013-06-17 20:16:00,71.2,54.2,30.06,NE,56,3.5,3.5,55,0.00,,,0.00,WeatherDisplay:10.37,2013-06-18 01:16:00,
2013-06-17 20:21:00,71.1,54.1,30.06,East,84,5.4,5.4,55,0.00,,,0.00,WeatherDisplay:10.37,2013-06-18 01:21:00,
2013-06-17 20:26:00,70.7,53.7,30.06,East,95,3.5,3.5,55,0.00,,,0.00,WeatherDisplay:10.37,2013-06-18 01:26:00,
2013-06-17 20:32:00,70.5,53.6,30.06,ENE,60,5.8,5.8,55,0.00,,,0.00,WeatherDisplay:10.37,2013-06-18 01:32:00,
2013-06-17 20:37:00,70.2,53.7,30.06,NE,50,4.6,4.6,56,0.00,,,0.00,WeatherDisplay:10.37,2013-06-18 01:37:00,
2013-06-17 20:42:00,69.8,53.4,30.06,ENE,73,3.5,3.5,56,0.00,,,0.00,WeatherDisplay:10.37,2013-06-18 01:42:00,
2013-06-17 20:47:00,69.4,54.0,30.06,NE,39,3.5,3.6,58,0.00,,,0.00,WeatherDisplay:10.37,2013-06-18 01:47:00,
2013-06-17 20:52:00,69.3,53.8,30.06,East,87,3.5,3.5,58,0.00,,,0.00,WeatherDisplay:10.37,2013-06-18 01:52:00,
2013-06-17 20:57:00,68.9,54.0,30.06,ENE,75,3.5,3.5,59,0.00,,,0.00,WeatherDisplay:10.37,2013-06-18 01:57:00,
2013-06-17 21:03:00,68.7,53.8,30.06,NE,48,3.5,3.5,59,0.00,,,0.00,WeatherDisplay:10.37,2013-06-18 02:03:00,
2013-06-17 21:08:00,68.4,53.9,30.06,NNE,18,5.8,5.8,60,0.00,,,0.00,WeatherDisplay:10.37,2013-06-18 02:08:00,
2013-06-17 21:13:00,68.2,54.2,30.06,East,99,5.8,5.8,61,0.00,,,0.00,WeatherDisplay:10.37,2013-06-18 02:13:00,
2013-06-17 21:18:00,67.8,53.9,30.09,ENE,61,3.5,3.6,61,0.00,,,0.00,WeatherDisplay:10.37,2013-06-18 02:18:00,
2013-06-17 21:23:00,67.5,54.0,30.09,East,79,5.8,5.8,62,0.00,,,0.00,WeatherDisplay:10.37,2013-06-18 02:23:00,
2013-06-17 21:29:00,67.3,54.3,30.09,NNE,24,5.8,5.8,63,0.00,,,0.00,WeatherDisplay:10.37,2013-06-18 02:29:00,
2013-06-17 21:34:00,66.9,53.9,30.09,East,87,4.6,4.6,63,0.00,,,0.00,WeatherDisplay:10.37,2013-06-18 02:34:00,
2013-06-17 21:39:00,66.6,53.6,30.09,East,100,5.8,5.8,63,0.00,,,0.00,WeatherDisplay:10.37,2013-06-18 02:39:00,
2013-06-17 21:44:00,66.2,53.2,30.09,NNE,29,8.1,8.1,63,0.00,,,0.00,WeatherDisplay:10.37,2013-06-18 02:44:00,
2013-06-17 21:49:00,65.8,53.3,30.09,East,85,5.8,6.3,64,0.00,,,0.00,WeatherDisplay:10.37,2013-06-18 02:49:00,
2013-06-17 21:54:00,65.5,53.0,30.09,NE,43,5.8,5.8,64,0.00,,,0.00,WeatherDisplay:10.37,2013-06-18 02:54:00,
2013-06-17 21:59:00,65.1,52.6,30.09,East,82,8.7,8.7,64,0.00,,,0.00,WeatherDisplay:10.37,2013-06-18 02:59:00,
2013-06-17 22:05:00,64.8,52.3,30.09,East,94,9.2,9.2,64,0.00,,,0.00,WeatherDisplay:10.37,2013-06-18 03:05:00,
2013-06-17 22:10:00,64.4,52.0,30.09,North,357,5.8,5.8,64,0.00,,,0.00,WeatherDisplay:10.37,2013-06-18 03:10:00,
2013-06-17 22:15:00,64.0,52.0,30.09,ENE,74,5.8,5.8,65,0.00,,,0.00,WeatherDisplay:10.37,2013-06-18 03:15:00,
2013-06-17 22:21:00,63.9,51.9,30.09,East,81,4.6,4.6,65,0.00,,,0.00,WeatherDisplay:10.37,2013-06-18 03:21:00,
2013-06-17 22:26:00,63.5,51.5,30.09,ESE,118,5.8,5.8,65,0.00,,,0.00,WeatherDisplay:10.37,2013-06-18 03:26:00,
2013-06-17 22:31:00,63.1,51.6,30.09,NNE,32,5.8,5.8,66,0.00,,,0.00,WeatherDisplay:10.37,2013-06-18 03:31:00,
2013-06-17 22:36:00,62.8,51.2,30.09,ENE,72,5.8,5.8,66,0.00,,,0.00,WeatherDisplay:10.37,2013-06-18 03:36:00,
2013-06-17 22:41:00,62.6,51.1,30.09,ENE,64,3.5,4.5,66,0.00,,,0.00,WeatherDisplay:10.37,2013-06-18 03:41:00,
2013-06-17 22:47:00,62.2,51.1,30.09,East,89,10.4,10.4,67,0.00,,,0.00,WeatherDisplay:10.37,2013-06-18 03:47:00,
2013-06-17 22:52:00,62.1,51.0,30.09,East,91,8.1,8.1,67,0.00,,,0.00,WeatherDisplay:10.37,2013-06-18 03:52:00,
2013-06-17 22:57:00,61.9,50.8,30.09,ESE,119,8.1,8.1,67,0.00,,,0.00,WeatherDisplay:10.37,2013-06-18 03:57:00,
2013-06-17 23:01:00,61.7,51.0,30.09,East,101,5.8,5.8,68,0.00,,,0.00,WeatherDisplay:10.37,2013-06-18 04:01:00,
2013-06-17 23:02:00,61.7,51.0,30.12,East,88,6.3,6.3,68,0.00,,,0.00,WeatherDisplay:10.37,2013-06-18 04:02:00,
2013-06-17 23:03:00,61.5,50.9,30.12,ENE,64,5.8,5.8,68,0.00,,,0.00,WeatherDisplay:10.37,2013-06-18 04:03:00,
2013-06-17 23:08:00,61.3,50.7,30.12,East,87,5.8,5.8,68,0.00,,,0.00,WeatherDisplay:10.37,2013-06-18 04:08:00,
2013-06-17 23:13:00,61.0,50.3,30.12,East,94,5.8,5.8,68,0.00,,,0.00,WeatherDisplay:10.37,2013-06-18 04:13:00,
2013-06-17 23:18:00,60.8,50.2,30.12,East,85,5.8,5.8,68,0.00,,,0.00,WeatherDisplay:10.37,2013-06-18 04:18:00,
2013-06-17 23:24:00,60.6,50.4,30.12,East,90,5.8,5.8,69,0.00,,,0.00,WeatherDisplay:10.37,2013-06-18 04:24:00,
2013-06-17 23:29:00,60.4,50.2,30.12,ESE,111,5.8,5.8,69,0.00,,,0.00,WeatherDisplay:10.37,2013-06-18 04:29:00,
2013-06-17 23:34:00,60.3,50.4,30.12,ENE,62,5.8,5.8,70,0.00,,,0.00,WeatherDisplay:10.37,2013-06-18 04:34:00,
2013-06-17 23:39:00,60.1,50.3,30.12,NNW,334,4.6,4.6,70,0.00,,,0.00,WeatherDisplay:10.37,2013-06-18 04:39:00,
2013-06-17 23:44:00,59.9,50.5,30.12,ENE,76,3.5,3.6,71,0.00,,,0.00,WeatherDisplay:10.37,2013-06-18 04:44:00,
2013-06-17 23:50:00,59.7,50.3,30.12,ENE,58,2.3,0.0,71,0.00,,,0.00,WeatherDisplay:10.37,2013-06-18 04:50:00,
2013-06-17 23:55:00,59.5,50.5,30.12,ENE,70,4.6,4.6,72,0.00,,,0.00,WeatherDisplay:10.37,2013-06-18 04:55:00,